CCA8334 ZBHH-ZSPD
Flight info
| Callsign | CCA8334 |
|---|---|
| Flight time | N/A |
| Altitude | 33100 |
| Route | TUSLA W64 AKNUX W247 MUGUT B458 SAKRI W631 PINAP G212 AMVOG W61 BEKDO W157 DALIM A593 VMB W161 SASAN SAS81A/17R |
| Aircraft | B737/M-SDE3FGHIRWY/LB1 |
Departure
| Time | N/A |
|---|---|
| Airport | Hohhot Baita International Airport (ZBHH) |
Arrival
| Time | 2026-05-06 14:12 |
|---|---|
| Airport | Shanghai Pudong International Airport (ZSPD) |
| Time | Latitude | Longitude | Altitude | Speed | Heading |
|---|---|---|---|---|---|
| 2026-05-06 13:40 | 32.73487 | 119.34066 | 24476 ft | 461 kts | 153° |
| 2026-05-06 13:40 | 32.70903 | 119.36330 | 24476 ft | 462 kts | 153° |
| 2026-05-06 13:41 | 32.68319 | 119.38596 | 24476 ft | 461 kts | 153° |
| 2026-05-06 13:41 | 32.65736 | 119.40844 | 24476 ft | 461 kts | 153° |
| 2026-05-06 13:41 | 32.63986 | 119.42361 | 24476 ft | 461 kts | 153° |
| 2026-05-06 13:41 | 32.60551 | 119.45334 | 24476 ft | 461 kts | 153° |
| 2026-05-06 13:42 | 32.58800 | 119.46846 | 24476 ft | 461 kts | 153° |
| 2026-05-06 13:42 | 32.56211 | 119.49082 | 24476 ft | 461 kts | 153° |
| 2026-05-06 13:42 | 32.53615 | 119.51322 | 24476 ft | 461 kts | 153° |
| 2026-05-06 13:42 | 32.50186 | 119.54280 | 24476 ft | 461 kts | 153° |
| 2026-05-06 13:43 | 32.48436 | 119.55787 | 24476 ft | 461 kts | 153° |
| 2026-05-06 13:43 | 32.45877 | 119.57997 | 24476 ft | 461 kts | 153° |
| 2026-05-06 13:43 | 32.43277 | 119.60231 | 24476 ft | 461 kts | 153° |
| 2026-05-06 13:43 | 32.40684 | 119.62449 | 24476 ft | 461 kts | 153° |
| 2026-05-06 13:44 | 32.38081 | 119.64671 | 24476 ft | 461 kts | 153° |
| 2026-05-06 13:44 | 32.35483 | 119.66886 | 24476 ft | 461 kts | 154° |
| 2026-05-06 13:44 | 32.32884 | 119.69100 | 24476 ft | 461 kts | 154° |
| 2026-05-06 13:44 | 32.30281 | 119.71317 | 24476 ft | 461 kts | 154° |
| 2026-05-06 13:45 | 32.27684 | 119.73527 | 24476 ft | 461 kts | 154° |
| 2026-05-06 13:45 | 32.22506 | 119.77949 | 23855 ft | 452 kts | 153° |
| 2026-05-06 13:45 | 32.19990 | 119.80104 | 23330 ft | 442 kts | 153° |
| 2026-05-06 13:46 | 32.17522 | 119.82212 | 22804 ft | 434 kts | 153° |
| 2026-05-06 13:46 | 32.15148 | 119.84237 | 22289 ft | 428 kts | 153° |
| 2026-05-06 13:46 | 32.12746 | 119.86283 | 21764 ft | 425 kts | 153° |
| 2026-05-06 13:46 | 32.10354 | 119.88319 | 21239 ft | 425 kts | 153° |
| 2026-05-06 13:47 | 32.07954 | 119.90362 | 20859 ft | 424 kts | 153° |
| 2026-05-06 13:47 | 32.05558 | 119.92399 | 20744 ft | 425 kts | 153° |
| 2026-05-06 13:47 | 32.03164 | 119.94445 | 20681 ft | 426 kts | 153° |
| 2026-05-06 13:47 | 32.00775 | 119.96499 | 20619 ft | 426 kts | 153° |
| 2026-05-06 13:48 | 31.98389 | 119.98567 | 20582 ft | 426 kts | 152° |
| 2026-05-06 13:48 | 31.96001 | 120.00627 | 20578 ft | 425 kts | 153° |
| 2026-05-06 13:48 | 31.93613 | 120.02679 | 20576 ft | 425 kts | 153° |
| 2026-05-06 13:48 | 31.91218 | 120.04733 | 20576 ft | 425 kts | 153° |
| 2026-05-06 13:49 | 31.88857 | 120.06754 | 20576 ft | 425 kts | 153° |
| 2026-05-06 13:49 | 31.86434 | 120.08827 | 20576 ft | 425 kts | 153° |
| 2026-05-06 13:49 | 31.84043 | 120.10871 | 20576 ft | 425 kts | 153° |
| 2026-05-06 13:49 | 31.81773 | 120.12811 | 20576 ft | 425 kts | 153° |
| 2026-05-06 13:50 | 31.79410 | 120.14830 | 20576 ft | 425 kts | 153° |
| 2026-05-06 13:50 | 31.77016 | 120.16873 | 20576 ft | 425 kts | 153° |
| 2026-05-06 13:50 | 31.74633 | 120.18909 | 20576 ft | 425 kts | 153° |
| 2026-05-06 13:50 | 31.72227 | 120.20945 | 20576 ft | 424 kts | 153° |
| 2026-05-06 13:51 | 31.69809 | 120.22943 | 20476 ft | 425 kts | 153° |
| 2026-05-06 13:51 | 31.67480 | 120.24870 | 20041 ft | 424 kts | 153° |
| 2026-05-06 13:51 | 31.65079 | 120.26859 | 19592 ft | 423 kts | 153° |
| 2026-05-06 13:51 | 31.62679 | 120.28850 | 19141 ft | 422 kts | 152° |
| 2026-05-06 13:52 | 31.60423 | 120.31096 | 18559 ft | 432 kts | 141° |
| 2026-05-06 13:52 | 31.58549 | 120.33893 | 17984 ft | 440 kts | 129° |
| 2026-05-06 13:52 | 31.57125 | 120.37075 | 17483 ft | 441 kts | 118° |
| 2026-05-06 13:52 | 31.56087 | 120.40441 | 16984 ft | 436 kts | 112° |
| 2026-05-06 13:53 | 31.55275 | 120.43648 | 16511 ft | 430 kts | 110° |
| 2026-05-06 13:53 | 31.54444 | 120.46986 | 16010 ft | 423 kts | 111° |
| 2026-05-06 13:53 | 31.53563 | 120.50229 | 15773 ft | 414 kts | 112° |
| 2026-05-06 13:53 | 31.52634 | 120.53427 | 15700 ft | 413 kts | 113° |
| 2026-05-06 13:54 | 31.51688 | 120.56613 | 15636 ft | 415 kts | 113° |
| 2026-05-06 13:54 | 31.50731 | 120.59827 | 15582 ft | 418 kts | 113° |
| 2026-05-06 13:54 | 31.49773 | 120.63038 | 15563 ft | 418 kts | 113° |
| 2026-05-06 13:54 | 31.48813 | 120.66257 | 15199 ft | 417 kts | 113° |
| 2026-05-06 13:55 | 31.47862 | 120.69442 | 14703 ft | 411 kts | 113° |
| 2026-05-06 13:55 | 31.46930 | 120.72562 | 14254 ft | 403 kts | 113° |
| 2026-05-06 13:55 | 31.46013 | 120.75631 | 13802 ft | 395 kts | 113° |
| 2026-05-06 13:55 | 31.45113 | 120.78642 | 13350 ft | 388 kts | 113° |
| 2026-05-06 13:56 | 31.44219 | 120.81587 | 12900 ft | 381 kts | 113° |
| 2026-05-06 13:56 | 31.43316 | 120.84476 | 12449 ft | 375 kts | 112° |
| 2026-05-06 13:56 | 31.42426 | 120.87325 | 11997 ft | 369 kts | 112° |
| 2026-05-06 13:56 | 31.41553 | 120.90128 | 11779 ft | 363 kts | 112° |
| 2026-05-06 13:57 | 31.40692 | 120.92889 | 11709 ft | 361 kts | 111° |
| 2026-05-06 13:57 | 31.39833 | 120.95657 | 11680 ft | 363 kts | 111° |
| 2026-05-06 13:57 | 31.38990 | 120.98450 | 11677 ft | 365 kts | 111° |
| 2026-05-06 13:57 | 31.38135 | 121.01268 | 11387 ft | 369 kts | 111° |
| 2026-05-06 13:58 | 31.37271 | 121.04101 | 11012 ft | 368 kts | 110° |
| 2026-05-06 13:58 | 31.36416 | 121.06855 | 10646 ft | 360 kts | 108° |
| 2026-05-06 13:58 | 31.35602 | 121.09609 | 10266 ft | 348 kts | 108° |
| 2026-05-06 13:58 | 31.34826 | 121.12156 | 9882 ft | 318 kts | 109° |
| 2026-05-06 13:59 | 31.34123 | 121.14504 | 9502 ft | 294 kts | 109° |
| 2026-05-06 13:59 | 31.33473 | 121.16678 | 9129 ft | 282 kts | 109° |
| 2026-05-06 13:59 | 31.32893 | 121.18625 | 8794 ft | 287 kts | 110° |
| 2026-05-06 13:59 | 31.32193 | 121.20943 | 8398 ft | 285 kts | 111° |
| 2026-05-06 14:00 | 31.31534 | 121.23121 | 8023 ft | 283 kts | 111° |
| 2026-05-06 14:00 | 31.30881 | 121.25281 | 7647 ft | 281 kts | 111° |
| 2026-05-06 14:00 | 31.30234 | 121.27422 | 7271 ft | 278 kts | 111° |
| 2026-05-06 14:00 | 31.29591 | 121.29549 | 6896 ft | 276 kts | 111° |
| 2026-05-06 14:01 | 31.28955 | 121.31657 | 6521 ft | 274 kts | 111° |
| 2026-05-06 14:01 | 31.28323 | 121.33754 | 6145 ft | 274 kts | 110° |
| 2026-05-06 14:01 | 31.27692 | 121.35853 | 5769 ft | 272 kts | 110° |
| 2026-05-06 14:01 | 31.27064 | 121.37929 | 5393 ft | 270 kts | 110° |
| 2026-05-06 14:02 | 31.26438 | 121.39987 | 5043 ft | 267 kts | 110° |
| 2026-05-06 14:02 | 31.25817 | 121.42025 | 4955 ft | 265 kts | 110° |
| 2026-05-06 14:02 | 31.25198 | 121.44057 | 4904 ft | 266 kts | 110° |
| 2026-05-06 14:02 | 31.24577 | 121.46095 | 4900 ft | 266 kts | 110° |
| 2026-05-06 14:03 | 31.23954 | 121.48134 | 4900 ft | 268 kts | 110° |
| 2026-05-06 14:03 | 31.23328 | 121.50186 | 4900 ft | 269 kts | 110° |
| 2026-05-06 14:03 | 31.22883 | 121.52300 | 4889 ft | 269 kts | 95° |
| 2026-05-06 14:03 | 31.23006 | 121.54469 | 4902 ft | 269 kts | 80° |
| 2026-05-06 14:04 | 31.23573 | 121.56540 | 4880 ft | 269 kts | 60° |
| 2026-05-06 14:04 | 31.24786 | 121.58188 | 4909 ft | 268 kts | 44° |
| 2026-05-06 14:04 | 31.26081 | 121.59759 | 4910 ft | 269 kts | 47° |
| 2026-05-06 14:04 | 31.27350 | 121.61356 | 4904 ft | 268 kts | 46° |
| 2026-05-06 14:05 | 31.28627 | 121.62950 | 4898 ft | 267 kts | 46° |
| 2026-05-06 14:05 | 31.29888 | 121.64516 | 4548 ft | 262 kts | 46° |
| 2026-05-06 14:05 | 31.31108 | 121.66028 | 3958 ft | 248 kts | 46° |
| 2026-05-06 14:05 | 31.32255 | 121.67447 | 3448 ft | 234 kts | 46° |
| 2026-05-06 14:06 | 31.33317 | 121.68804 | 3185 ft | 218 kts | 53° |
| 2026-05-06 14:06 | 31.33805 | 121.70379 | 3023 ft | 203 kts | 94° |
| 2026-05-06 14:06 | 31.33247 | 121.71780 | 2960 ft | 189 kts | 140° |
| 2026-05-06 14:06 | 31.32085 | 121.72372 | 3012 ft | 177 kts | 166° |
| 2026-05-06 14:07 | 31.30945 | 121.72676 | 2970 ft | 160 kts | 168° |
| 2026-05-06 14:07 | 31.29908 | 121.72966 | 2957 ft | 146 kts | 167° |
| 2026-05-06 14:07 | 31.28944 | 121.73282 | 2826 ft | 143 kts | 166° |
| 2026-05-06 14:07 | 31.28014 | 121.73610 | 2582 ft | 137 kts | 165° |
| 2026-05-06 14:08 | 31.27116 | 121.73938 | 2377 ft | 133 kts | 164° |
| 2026-05-06 14:08 | 31.26249 | 121.74261 | 2201 ft | 130 kts | 163° |
| 2026-05-06 14:08 | 31.25390 | 121.74584 | 2032 ft | 129 kts | 163° |
| 2026-05-06 14:08 | 31.24538 | 121.74906 | 1864 ft | 127 kts | 162° |
| 2026-05-06 14:09 | 31.23711 | 121.75218 | 1693 ft | 123 kts | 163° |
| 2026-05-06 14:09 | 31.22901 | 121.75525 | 1532 ft | 122 kts | 163° |
| 2026-05-06 14:09 | 31.22099 | 121.75828 | 1372 ft | 121 kts | 163° |
| 2026-05-06 14:09 | 31.21303 | 121.76130 | 1215 ft | 120 kts | 163° |
| 2026-05-06 14:10 | 31.20505 | 121.76431 | 1065 ft | 119 kts | 163° |
| 2026-05-06 14:10 | 31.19719 | 121.76724 | 897 ft | 118 kts | 163° |
| 2026-05-06 14:10 | 31.18929 | 121.77018 | 735 ft | 121 kts | 162° |
| 2026-05-06 14:10 | 31.18113 | 121.77320 | 585 ft | 125 kts | 161° |
| 2026-05-06 14:11 | 31.17287 | 121.77646 | 404 ft | 126 kts | 160° |
| 2026-05-06 14:11 | 31.16447 | 121.77964 | 244 ft | 129 kts | 160° |
| 2026-05-06 14:11 | 31.15603 | 121.78285 | 83 ft | 129 kts | 160° |
| 2026-05-06 14:11 | 31.14784 | 121.78596 | 23 ft | 110 kts | 161° |
| 2026-05-06 14:12 | 31.14252 | 121.78799 | 21 ft | 49 kts | 163° |
| 2026-05-06 14:12 | 31.13995 | 121.78899 | 21 ft | 35 kts | 153° |
| 2026-05-06 14:12 | 31.13845 | 121.79024 | 21 ft | 24 kts | 131° |
| 2026-05-06 14:12 | 31.13806 | 121.79075 | 21 ft | 0 kts | 133° |
| 2026-05-06 14:13 | 31.13797 | 121.79087 | 21 ft | 7 kts | 133° |
| 2026-05-06 14:13 | 31.13744 | 121.79152 | 21 ft | 12 kts | 136° |
| 2026-05-06 14:14 | 31.13648 | 121.79234 | 21 ft | 19 kts | 160° |
| 2026-05-06 14:14 | 31.13598 | 121.79288 | 21 ft | 14 kts | 73° |
| 2026-05-06 14:14 | 31.13649 | 121.79470 | 21 ft | 26 kts | 72° |
| 2026-05-06 14:14 | 31.13700 | 121.79658 | 21 ft | 23 kts | 72° |
| 2026-05-06 14:15 | 31.13750 | 121.79832 | 21 ft | 22 kts | 71° |
| 2026-05-06 14:15 | 31.13795 | 121.79996 | 21 ft | 18 kts | 73° |
| 2026-05-06 14:15 | 31.13802 | 121.80112 | 21 ft | 13 kts | 73° |
| 2026-05-06 14:15 | 31.13816 | 121.80166 | 21 ft | 4 kts | 72° |
| 2026-05-06 14:16 | 31.13818 | 121.80173 | 21 ft | 0 kts | 72° |